sensor_id;sensor_type;location;lat;lon;timestamp;pressure;altitude;pressure_sealevel;temperature;humidity
50310;BME280;36207;51.850;21.698;2023-03-22T00:00:34;99919.79;;;2.85;71.58
50310;BME280;36207;51.850;21.698;2023-03-22T00:03:17;99920.49;;;2.77;71.60
50310;BME280;36207;51.850;21.698;2023-03-22T00:05:43;99914.14;;;2.69;71.72
50310;BME280;36207;51.850;21.698;2023-03-22T00:08:09;99913.73;;;2.65;71.76
50310;BME280;36207;51.850;21.698;2023-03-22T00:10:37;99912.44;;;2.62;71.73
50310;BME280;36207;51.850;21.698;2023-03-22T00:13:08;99914.04;;;2.62;71.76
50310;BME280;36207;51.850;21.698;2023-03-22T00:15:35;99916.98;;;2.64;71.95
50310;BME280;36207;51.850;21.698;2023-03-22T00:18:01;99910.25;;;2.65;71.85
50310;BME280;36207;51.850;21.698;2023-03-22T00:20:28;99906.80;;;2.64;71.82
50310;BME280;36207;51.850;21.698;2023-03-22T00:23:03;99902.83;;;2.61;72.15
50310;BME280;36207;51.850;21.698;2023-03-22T00:25:30;99899.13;;;2.59;72.35
50310;BME280;36207;51.850;21.698;2023-03-22T00:27:56;99901.00;;;2.58;72.53
50310;BME280;36207;51.850;21.698;2023-03-22T00:30:23;99901.48;;;2.59;72.74
50310;BME280;36207;51.850;21.698;2023-03-22T00:32:49;99898.73;;;2.62;72.80
50310;BME280;36207;51.850;21.698;2023-03-22T00:35:15;99901.00;;;2.64;73.07
50310;BME280;36207;51.850;21.698;2023-03-22T00:37:41;99905.71;;;2.66;72.69
50310;BME280;36207;51.850;21.698;2023-03-22T00:40:10;99905.99;;;2.67;72.40
50310;BME280;36207;51.850;21.698;2023-03-22T00:42:38;99905.06;;;2.66;72.32
50310;BME280;36207;51.850;21.698;2023-03-22T00:45:07;99906.79;;;2.60;72.24
50310;BME280;36207;51.850;21.698;2023-03-22T00:47:33;99906.44;;;2.54;72.46
50310;BME280;36207;51.850;21.698;2023-03-22T00:49:59;99904.91;;;2.51;72.31
50310;BME280;36207;51.850;21.698;2023-03-22T00:52:25;99904.41;;;2.49;72.32
50310;BME280;36207;51.850;21.698;2023-03-22T00:54:51;99902.36;;;2.46;72.20
50310;BME280;36207;51.850;21.698;2023-03-22T00:57:17;99899.88;;;2.46;71.98
50310;BME280;36207;51.850;21.698;2023-03-22T00:59:44;99898.98;;;2.46;72.09
50310;BME280;36207;51.850;21.698;2023-03-22T01:02:11;99898.16;;;2.46;71.86
50310;BME280;36207;51.850;21.698;2023-03-22T01:04:41;99898.87;;;2.44;71.81
50310;BME280;36207;51.850;21.698;2023-03-22T01:07:16;99897.77;;;2.40;72.10
50310;BME280;36207;51.850;21.698;2023-03-22T01:09:46;99898.05;;;2.35;72.26
50310;BME280;36207;51.850;21.698;2023-03-22T01:12:13;99900.45;;;2.31;72.07
50310;BME280;36207;51.850;21.698;2023-03-22T01:14:41;99895.02;;;2.27;72.11
50310;BME280;36207;51.850;21.698;2023-03-22T01:17:07;99890.96;;;2.22;72.11
50310;BME280;36207;51.850;21.698;2023-03-22T01:19:34;99886.30;;;2.20;72.23
50310;BME280;36207;51.850;21.698;2023-03-22T01:22:01;99884.16;;;2.16;72.29
50310;BME280;36207;51.850;21.698;2023-03-22T01:24:28;99882.60;;;2.16;72.17
50310;BME280;36207;51.850;21.698;2023-03-22T01:26:54;99882.86;;;2.17;72.17
50310;BME280;36207;51.850;21.698;2023-03-22T01:29:20;99882.23;;;2.20;72.36
50310;BME280;36207;51.850;21.698;2023-03-22T01:31:46;99883.27;;;2.22;72.18
50310;BME280;36207;51.850;21.698;2023-03-22T01:34:12;99878.25;;;2.21;72.18
50310;BME280;36207;51.850;21.698;2023-03-22T01:36:38;99874.50;;;2.18;72.16
50310;BME280;36207;51.850;21.698;2023-03-22T01:39:04;99874.84;;;2.16;72.34
50310;BME280;36207;51.850;21.698;2023-03-22T01:41:32;99872.06;;;2.16;72.43
50310;BME280;36207;51.850;21.698;2023-03-22T01:44:12;99870.74;;;2.14;72.59
50310;BME280;36207;51.850;21.698;2023-03-22T01:46:40;99869.70;;;2.14;72.20
50310;BME280;36207;51.850;21.698;2023-03-22T01:49:09;99871.04;;;2.13;72.12
50310;BME280;36207;51.850;21.698;2023-03-22T01:51:37;99872.09;;;2.11;72.06
50310;BME280;36207;51.850;21.698;2023-03-22T01:54:07;99871.17;;;2.10;71.89
50310;BME280;36207;51.850;21.698;2023-03-22T01:56:36;99866.67;;;2.07;72.08
50310;BME280;36207;51.850;21.698;2023-03-22T01:59:04;99867.35;;;2.03;72.15
50310;BME280;36207;51.850;21.698;2023-03-22T02:01:31;99866.56;;;1.99;72.14
50310;BME280;36207;51.850;21.698;2023-03-22T02:04:04;99864.91;;;1.96;72.17
50310;BME280;36207;51.850;21.698;2023-03-22T02:06:33;99864.83;;;1.95;72.52
50310;BME280;36207;51.850;21.698;2023-03-22T02:09:08;99863.30;;;1.96;72.73
50310;BME280;36207;51.850;21.698;2023-03-22T02:11:39;99858.83;;;1.96;72.31
50310;BME280;36207;51.850;21.698;2023-03-22T02:22:37;99852.60;;;1.96;72.25
50310;BME280;36207;51.850;21.698;2023-03-22T02:39:28;99845.38;;;1.93;73.19
50310;BME280;36207;51.850;21.698;2023-03-22T02:45:12;99843.45;;;2.03;73.52
50310;BME280;36207;51.850;21.698;2023-03-22T02:50:13;99843.53;;;2.06;73.56
50310;BME280;36207;51.850;21.698;2023-03-22T02:55:37;99848.30;;;2.10;74.03
50310;BME280;36207;51.850;21.698;2023-03-22T02:58:16;99844.45;;;2.12;74.09
50310;BME280;36207;51.850;21.698;2023-03-22T03:00:44;99843.98;;;2.16;73.98
50310;BME280;36207;51.850;21.698;2023-03-22T03:03:12;99841.70;;;2.19;73.65
50310;BME280;36207;51.850;21.698;2023-03-22T03:05:46;99841.65;;;2.20;73.72
50310;BME280;36207;51.850;21.698;2023-03-22T03:08:15;99841.80;;;2.21;73.67
50310;BME280;36207;51.850;21.698;2023-03-22T03:10:42;99842.95;;;2.21;73.75
50310;BME280;36207;51.850;21.698;2023-03-22T03:13:12;99842.88;;;2.24;73.75
50310;BME280;36207;51.850;21.698;2023-03-22T03:15:41;99841.70;;;2.28;73.83
50310;BME280;36207;51.850;21.698;2023-03-22T03:21:00;99847.11;;;2.29;74.28
50310;BME280;36207;51.850;21.698;2023-03-22T03:36:38;99840.40;;;2.35;74.07
50310;BME280;36207;51.850;21.698;2023-03-22T03:39:11;99841.40;;;2.32;74.03
50310;BME280;36207;51.850;21.698;2023-03-22T03:41:39;99841.96;;;2.27;73.97
50310;BME280;36207;51.850;21.698;2023-03-22T03:44:07;99840.65;;;2.21;74.05
50310;BME280;36207;51.850;21.698;2023-03-22T03:46:33;99840.34;;;2.17;74.15
50310;BME280;36207;51.850;21.698;2023-03-22T03:49:00;99840.15;;;2.15;74.00
50310;BME280;36207;51.850;21.698;2023-03-22T03:51:27;99838.07;;;2.17;74.20
50310;BME280;36207;51.850;21.698;2023-03-22T03:53:53;99838.14;;;2.18;74.21
50310;BME280;36207;51.850;21.698;2023-03-22T03:56:19;99832.52;;;2.16;74.22
50310;BME280;36207;51.850;21.698;2023-03-22T03:58:45;99828.16;;;2.14;74.23
50310;BME280;36207;51.850;21.698;2023-03-22T04:01:11;99827.13;;;2.09;74.00
50310;BME280;36207;51.850;21.698;2023-03-22T04:03:37;99832.92;;;2.05;73.80
50310;BME280;36207;51.850;21.698;2023-03-22T04:06:03;99832.46;;;2.02;73.81
50310;BME280;36207;51.850;21.698;2023-03-22T04:08:28;99829.79;;;2.00;73.83
50310;BME280;36207;51.850;21.698;2023-03-22T04:10:54;99821.83;;;2.03;74.04
50310;BME280;36207;51.850;21.698;2023-03-22T04:13:20;99817.52;;;2.09;74.15
50310;BME280;36207;51.850;21.698;2023-03-22T04:15:51;99818.63;;;2.10;74.03
50310;BME280;36207;51.850;21.698;2023-03-22T04:18:17;99819.77;;;2.09;74.05
50310;BME280;36207;51.850;21.698;2023-03-22T04:20:45;99821.41;;;2.08;74.17
50310;BME280;36207;51.850;21.698;2023-03-22T04:23:10;99819.18;;;2.03;73.96
50310;BME280;36207;51.850;21.698;2023-03-22T04:25:36;99815.47;;;2.02;73.73
50310;BME280;36207;51.850;21.698;2023-03-22T04:28:03;99821.17;;;2.01;73.75
50310;BME280;36207;51.850;21.698;2023-03-22T04:30:29;99823.69;;;2.00;73.73
50310;BME280;36207;51.850;21.698;2023-03-22T04:33:04;99822.10;;;1.98;73.65
50310;BME280;36207;51.850;21.698;2023-03-22T04:35:34;99825.92;;;1.94;73.83
50310;BME280;36207;51.850;21.698;2023-03-22T04:38:00;99828.64;;;1.89;73.63
50310;BME280;36207;51.850;21.698;2023-03-22T04:40:27;99825.74;;;1.84;73.88
50310;BME280;36207;51.850;21.698;2023-03-22T04:42:57;99825.16;;;1.80;74.00
50310;BME280;36207;51.850;21.698;2023-03-22T04:45:23;99826.11;;;1.82;74.19
50310;BME280;36207;51.850;21.698;2023-03-22T04:47:53;99826.98;;;1.86;74.41
50310;BME280;36207;51.850;21.698;2023-03-22T04:50:19;99828.46;;;1.89;74.48
50310;BME280;36207;51.850;21.698;2023-03-22T04:52:45;99827.85;;;1.92;74.34
50310;BME280;36207;51.850;21.698;2023-03-22T04:55:12;99827.43;;;1.95;74.23
50310;BME280;36207;51.850;21.698;2023-03-22T04:57:38;99830.06;;;1.95;74.25
50310;BME280;36207;51.850;21.698;2023-03-22T05:00:05;99827.88;;;1.96;74.21
50310;BME280;36207;51.850;21.698;2023-03-22T05:02:33;99829.52;;;1.95;74.12
50310;BME280;36207;51.850;21.698;2023-03-22T05:04:59;99836.23;;;1.95;74.07
50310;BME280;36207;51.850;21.698;2023-03-22T05:07:25;99837.01;;;1.96;74.00
50310;BME280;36207;51.850;21.698;2023-03-22T05:09:51;99835.02;;;1.99;73.97
50310;BME280;36207;51.850;21.698;2023-03-22T05:12:17;99838.23;;;2.02;74.07
50310;BME280;36207;51.850;21.698;2023-03-22T05:14:43;99838.94;;;2.04;74.09
50310;BME280;36207;51.850;21.698;2023-03-22T05:17:09;99841.49;;;2.05;74.08
50310;BME280;36207;51.850;21.698;2023-03-22T05:19:35;99840.89;;;2.06;74.02
50310;BME280;36207;51.850;21.698;2023-03-22T05:22:01;99837.73;;;2.09;74.27
50310;BME280;36207;51.850;21.698;2023-03-22T05:24:29;99836.84;;;2.11;74.30
50310;BME280;36207;51.850;21.698;2023-03-22T05:26:55;99838.84;;;2.16;74.45
50310;BME280;36207;51.850;21.698;2023-03-22T05:29:26;99839.52;;;2.22;74.59
50310;BME280;36207;51.850;21.698;2023-03-22T05:31:52;99839.89;;;2.29;74.56
50310;BME280;36207;51.850;21.698;2023-03-22T05:34:19;99836.48;;;2.34;74.71
50310;BME280;36207;51.850;21.698;2023-03-22T05:36:46;99841.42;;;2.37;74.81
50310;BME280;36207;51.850;21.698;2023-03-22T05:39:12;99840.25;;;2.41;74.69
50310;BME280;36207;51.850;21.698;2023-03-22T05:41:40;99839.25;;;2.44;74.87
50310;BME280;36207;51.850;21.698;2023-03-22T05:44:09;99842.33;;;2.50;74.95
50310;BME280;36207;51.850;21.698;2023-03-22T05:46:35;99842.80;;;2.56;75.22
50310;BME280;36207;51.850;21.698;2023-03-22T05:49:01;99846.73;;;2.63;75.13
50310;BME280;36207;51.850;21.698;2023-03-22T05:51:27;99851.20;;;2.71;75.36
50310;BME280;36207;51.850;21.698;2023-03-22T05:53:54;99853.70;;;2.79;75.08
50310;BME280;36207;51.850;21.698;2023-03-22T05:56:20;99858.08;;;2.87;75.45
50310;BME280;36207;51.850;21.698;2023-03-22T05:58:49;99854.97;;;2.98;75.84
50310;BME280;36207;51.850;21.698;2023-03-22T06:01:15;99853.54;;;3.07;75.87
50310;BME280;36207;51.850;21.698;2023-03-22T06:03:41;99859.23;;;3.20;76.18
50310;BME280;36207;51.850;21.698;2023-03-22T06:06:08;99864.14;;;3.36;76.25
50310;BME280;36207;51.850;21.698;2023-03-22T06:08:36;99863.55;;;3.50;76.22
50310;BME280;36207;51.850;21.698;2023-03-22T06:11:05;99860.05;;;3.68;76.22
50310;BME280;36207;51.850;21.698;2023-03-22T06:13:31;99855.61;;;3.82;76.62
50310;BME280;36207;51.850;21.698;2023-03-22T06:15:59;99852.43;;;3.94;76.79
50310;BME280;36207;51.850;21.698;2023-03-22T06:18:25;99854.25;;;4.08;77.07
50310;BME280;36207;51.850;21.698;2023-03-22T06:20:51;99854.10;;;4.21;76.86
50310;BME280;36207;51.850;21.698;2023-03-22T06:23:17;99848.00;;;4.34;77.00
50310;BME280;36207;51.850;21.698;2023-03-22T06:25:43;99846.91;;;4.41;76.84
50310;BME280;36207;51.850;21.698;2023-03-22T06:28:09;99847.44;;;4.49;76.93
50310;BME280;36207;51.850;21.698;2023-03-22T06:30:35;99854.31;;;4.57;77.09
50310;BME280;36207;51.850;21.698;2023-03-22T06:33:02;99853.98;;;4.62;76.87
50310;BME280;36207;51.850;21.698;2023-03-22T06:35:31;99857.02;;;4.69;77.11
50310;BME280;36207;51.850;21.698;2023-03-22T06:37:57;99854.98;;;4.80;77.07
50310;BME280;36207;51.850;21.698;2023-03-22T06:40:23;99853.86;;;4.97;77.27
50310;BME280;36207;51.850;21.698;2023-03-22T06:42:49;99846.26;;;5.21;77.47
50310;BME280;36207;51.850;21.698;2023-03-22T06:45:15;99845.48;;;5.38;77.70
50310;BME280;36207;51.850;21.698;2023-03-22T06:47:42;99840.16;;;5.54;77.58
50310;BME280;36207;51.850;21.698;2023-03-22T06:50:08;99837.67;;;5.72;78.05
50310;BME280;36207;51.850;21.698;2023-03-22T06:52:37;99838.65;;;5.89;78.17
50310;BME280;36207;51.850;21.698;2023-03-22T06:55:04;99843.23;;;6.09;78.01
50310;BME280;36207;51.850;21.698;2023-03-22T06:57:30;99846.06;;;6.30;78.09
50310;BME280;36207;51.850;21.698;2023-03-22T06:59:56;99840.27;;;6.45;78.79
50310;BME280;36207;51.850;21.698;2023-03-22T07:02:21;99845.41;;;6.52;78.73
50310;BME280;36207;51.850;21.698;2023-03-22T07:04:47;99842.60;;;6.59;78.32
50310;BME280;36207;51.850;21.698;2023-03-22T07:07:13;99842.13;;;6.68;78.46
50310;BME280;36207;51.850;21.698;2023-03-22T07:09:40;99838.75;;;6.81;78.33
50310;BME280;36207;51.850;21.698;2023-03-22T07:12:05;99830.66;;;6.92;78.40
50310;BME280;36207;51.850;21.698;2023-03-22T07:14:31;99830.79;;;7.06;78.46
50310;BME280;36207;51.850;21.698;2023-03-22T07:16:58;99825.23;;;7.22;78.31
50310;BME280;36207;51.850;21.698;2023-03-22T07:19:24;99825.77;;;7.39;78.45
50310;BME280;36207;51.850;21.698;2023-03-22T07:21:53;99828.48;;;7.53;77.93
50310;BME280;36207;51.850;21.698;2023-03-22T07:24:19;99830.25;;;7.63;77.79
50310;BME280;36207;51.850;21.698;2023-03-22T07:26:45;99831.45;;;7.72;77.88
50310;BME280;36207;51.850;21.698;2023-03-22T07:29:11;99832.15;;;7.77;77.57
50310;BME280;36207;51.850;21.698;2023-03-22T07:31:37;99829.69;;;7.81;77.41
50310;BME280;36207;51.850;21.698;2023-03-22T07:34:04;99831.77;;;7.83;77.30
50310;BME280;36207;51.850;21.698;2023-03-22T07:36:31;99825.88;;;7.87;77.60
50310;BME280;36207;51.850;21.698;2023-03-22T07:38:57;99831.27;;;7.96;77.60
50310;BME280;36207;51.850;21.698;2023-03-22T07:41:24;99832.05;;;8.03;77.50
50310;BME280;36207;51.850;21.698;2023-03-22T07:43:51;99833.44;;;8.12;77.65
50310;BME280;36207;51.850;21.698;2023-03-22T07:46:17;99832.86;;;8.22;77.40
50310;BME280;36207;51.850;21.698;2023-03-22T07:48:43;99829.37;;;8.40;77.50
50310;BME280;36207;51.850;21.698;2023-03-22T07:51:09;99832.50;;;8.53;77.04
50310;BME280;36207;51.850;21.698;2023-03-22T07:53:35;99832.65;;;8.62;76.91
50310;BME280;36207;51.850;21.698;2023-03-22T07:56:02;99832.52;;;8.67;76.83
50310;BME280;36207;51.850;21.698;2023-03-22T07:58:29;99831.41;;;8.74;76.74
50310;BME280;36207;51.850;21.698;2023-03-22T08:00:55;99826.89;;;8.80;76.47
50310;BME280;36207;51.850;21.698;2023-03-22T08:03:21;99823.73;;;8.89;76.77
50310;BME280;36207;51.850;21.698;2023-03-22T08:05:47;99819.98;;;9.02;76.70
50310;BME280;36207;51.850;21.698;2023-03-22T08:08:13;99824.14;;;9.09;75.97
50310;BME280;36207;51.850;21.698;2023-03-22T08:10:39;99818.52;;;9.14;76.27
50310;BME280;36207;51.850;21.698;2023-03-22T08:13:05;99825.00;;;9.29;76.46
50310;BME280;36207;51.850;21.698;2023-03-22T08:15:31;99827.05;;;9.44;76.32
50310;BME280;36207;51.850;21.698;2023-03-22T08:17:58;99821.73;;;9.54;75.88
50310;BME280;36207;51.850;21.698;2023-03-22T08:20:25;99818.58;;;9.59;75.27
50310;BME280;36207;51.850;21.698;2023-03-22T08:22:54;99818.80;;;9.60;74.94
50310;BME280;36207;51.850;21.698;2023-03-22T08:25:20;99815.84;;;9.64;75.08
50310;BME280;36207;51.850;21.698;2023-03-22T08:27:46;99816.98;;;9.70;74.08
50310;BME280;36207;51.850;21.698;2023-03-22T08:30:13;99813.09;;;9.71;74.27
50310;BME280;36207;51.850;21.698;2023-03-22T08:32:39;99810.20;;;9.74;74.03
50310;BME280;36207;51.850;21.698;2023-03-22T08:35:06;99808.99;;;9.78;73.73
50310;BME280;36207;51.850;21.698;2023-03-22T08:37:32;99816.34;;;9.78;73.10
50310;BME280;36207;51.850;21.698;2023-03-22T08:39:58;99807.97;;;9.78;73.73
50310;BME280;36207;51.850;21.698;2023-03-22T08:42:24;99807.29;;;9.84;73.88
50310;BME280;36207;51.850;21.698;2023-03-22T08:44:50;99801.63;;;9.91;73.94
50310;BME280;36207;51.850;21.698;2023-03-22T08:47:17;99803.79;;;9.99;73.37
50310;BME280;36207;51.850;21.698;2023-03-22T08:49:43;99800.23;;;10.00;73.11
50310;BME280;36207;51.850;21.698;2023-03-22T08:52:09;99801.65;;;10.03;73.48
50310;BME280;36207;51.850;21.698;2023-03-22T08:54:36;99798.49;;;10.06;73.06
50310;BME280;36207;51.850;21.698;2023-03-22T08:57:03;99800.71;;;10.10;72.67
50310;BME280;36207;51.850;21.698;2023-03-22T08:59:29;99801.27;;;10.10;71.93
50310;BME280;36207;51.850;21.698;2023-03-22T09:01:55;99800.63;;;10.09;72.34
50310;BME280;36207;51.850;21.698;2023-03-22T09:04:21;99804.05;;;10.15;72.76
50310;BME280;36207;51.850;21.698;2023-03-22T09:06:47;99794.31;;;10.22;72.52
50310;BME280;36207;51.850;21.698;2023-03-22T09:09:13;99793.59;;;10.30;72.42
50310;BME280;36207;51.850;21.698;2023-03-22T09:11:39;99790.98;;;10.37;72.51
50310;BME280;36207;51.850;21.698;2023-03-22T09:14:08;99782.55;;;10.42;71.73
50310;BME280;36207;51.850;21.698;2023-03-22T09:16:34;99778.61;;;10.42;70.98
50310;BME280;36207;51.850;21.698;2023-03-22T09:19:00;99776.34;;;10.44;71.33
50310;BME280;36207;51.850;21.698;2023-03-22T09:21:27;99776.61;;;10.54;70.70
50310;BME280;36207;51.850;21.698;2023-03-22T09:23:56;99774.87;;;10.62;70.93
50310;BME280;36207;51.850;21.698;2023-03-22T09:26:22;99768.38;;;10.75;71.17
50310;BME280;36207;51.850;21.698;2023-03-22T09:28:48;99768.00;;;10.92;70.77
50310;BME280;36207;51.850;21.698;2023-03-22T09:31:14;99770.22;;;11.05;70.73
50310;BME280;36207;51.850;21.698;2023-03-22T09:33:41;99772.73;;;11.17;70.68
50310;BME280;36207;51.850;21.698;2023-03-22T09:36:08;99773.24;;;11.23;70.33
50310;BME280;36207;51.850;21.698;2023-03-22T09:38:37;99775.02;;;11.26;70.02
50310;BME280;36207;51.850;21.698;2023-03-22T09:41:11;99771.42;;;11.29;70.40
50310;BME280;36207;51.850;21.698;2023-03-22T09:43:54;99771.05;;;11.33;68.96
50310;BME280;36207;51.850;21.698;2023-03-22T09:46:31;99764.39;;;11.32;69.65
50310;BME280;36207;51.850;21.698;2023-03-22T09:49:00;99758.74;;;11.36;69.88
50310;BME280;36207;51.850;21.698;2023-03-22T09:51:48;99757.66;;;11.42;70.00
50310;BME280;36207;51.850;21.698;2023-03-22T09:54:17;99759.58;;;11.54;70.13
50310;BME280;36207;51.850;21.698;2023-03-22T09:56:57;99762.70;;;11.61;68.62
50310;BME280;36207;51.850;21.698;2023-03-22T09:59:43;99758.38;;;11.63;69.35
50310;BME280;36207;51.850;21.698;2023-03-22T10:10:29;99746.16;;;12.02;67.92
50310;BME280;36207;51.850;21.698;2023-03-22T10:12:57;99739.77;;;12.13;68.02
50310;BME280;36207;51.850;21.698;2023-03-22T10:17:55;99733.73;;;12.41;67.01
50310;BME280;36207;51.850;21.698;2023-03-22T10:23:05;99713.25;;;12.61;65.83
50310;BME280;36207;51.850;21.698;2023-03-22T10:25:40;99711.88;;;12.62;64.28
50310;BME280;36207;51.850;21.698;2023-03-22T10:28:20;99706.04;;;12.56;63.14
50310;BME280;36207;51.850;21.698;2023-03-22T10:30:52;99702.20;;;12.54;63.62
50310;BME280;36207;51.850;21.698;2023-03-22T10:33:38;99701.11;;;12.53;62.56
50310;BME280;36207;51.850;21.698;2023-03-22T10:36:11;99701.58;;;12.47;62.76
50310;BME280;36207;51.850;21.698;2023-03-22T10:38:50;99705.38;;;12.37;63.10
50310;BME280;36207;51.850;21.698;2023-03-22T10:41:19;99701.42;;;12.30;63.53
50310;BME280;36207;51.850;21.698;2023-03-22T10:43:51;99699.46;;;12.27;62.60
50310;BME280;36207;51.850;21.698;2023-03-22T10:46:20;99697.69;;;12.20;61.52
50310;BME280;36207;51.850;21.698;2023-03-22T10:48:50;99695.80;;;12.13;61.54
50310;BME280;36207;51.850;21.698;2023-03-22T10:53:54;99697.14;;;11.98;62.07
50310;BME280;36207;51.850;21.698;2023-03-22T10:56:20;99694.27;;;11.91;60.70
50310;BME280;36207;51.850;21.698;2023-03-22T10:58:48;99693.44;;;11.91;61.78
50310;BME280;36207;51.850;21.698;2023-03-22T11:03:50;99692.19;;;11.85;58.82
50310;BME280;36207;51.850;21.698;2023-03-22T11:06:21;99688.83;;;11.83;58.97
50310;BME280;36207;51.850;21.698;2023-03-22T11:08:50;99682.05;;;11.85;60.28
50310;BME280;36207;51.850;21.698;2023-03-22T11:11:29;99677.23;;;11.92;60.86
50310;BME280;36207;51.850;21.698;2023-03-22T11:14:04;99674.14;;;11.99;58.97
50310;BME280;36207;51.850;21.698;2023-03-22T11:16:41;99674.70;;;12.03;56.08
50310;BME280;36207;51.850;21.698;2023-03-22T11:19:14;99667.00;;;12.10;56.90
50310;BME280;36207;51.850;21.698;2023-03-22T11:21:41;99665.80;;;12.16;57.05
50310;BME280;36207;51.850;21.698;2023-03-22T11:24:11;99652.91;;;12.17;58.19
50310;BME280;36207;51.850;21.698;2023-03-22T11:26:39;99648.48;;;12.20;56.65
50310;BME280;36207;51.850;21.698;2023-03-22T11:29:18;99643.59;;;12.22;58.08
50310;BME280;36207;51.850;21.698;2023-03-22T11:31:58;99641.66;;;12.24;57.36
50310;BME280;36207;51.850;21.698;2023-03-22T11:34:29;99638.01;;;12.26;57.93
50310;BME280;36207;51.850;21.698;2023-03-22T11:36:59;99633.84;;;12.28;58.13
50310;BME280;36207;51.850;21.698;2023-03-22T11:39:26;99639.39;;;12.31;57.44
50310;BME280;36207;51.850;21.698;2023-03-22T11:41:57;99638.67;;;12.29;56.61
50310;BME280;36207;51.850;21.698;2023-03-22T11:44:27;99639.98;;;12.30;57.53
50310;BME280;36207;51.850;21.698;2023-03-22T11:47:06;99629.63;;;12.29;56.52
50310;BME280;36207;51.850;21.698;2023-03-22T11:49:47;99626.20;;;12.28;56.34
50310;BME280;36207;51.850;21.698;2023-03-22T11:52:21;99625.21;;;12.28;56.86
50310;BME280;36207;51.850;21.698;2023-03-22T11:54:48;99626.16;;;12.31;56.69
50310;BME280;36207;51.850;21.698;2023-03-22T11:57:25;99618.89;;;12.33;56.96
50310;BME280;36207;51.850;21.698;2023-03-22T11:59:59;99617.66;;;12.38;56.82
50310;BME280;36207;51.850;21.698;2023-03-22T12:02:29;99614.48;;;12.38;56.41
50310;BME280;36207;51.850;21.698;2023-03-22T12:05:21;99615.66;;;12.40;57.27
50310;BME280;36207;51.850;21.698;2023-03-22T12:07:53;99621.77;;;12.40;57.10
50310;BME280;36207;51.850;21.698;2023-03-22T12:10:32;99616.77;;;12.37;57.64
50310;BME280;36207;51.850;21.698;2023-03-22T12:13:11;99618.04;;;12.36;57.12
50310;BME280;36207;51.850;21.698;2023-03-22T12:15:41;99619.45;;;12.29;56.29
50310;BME280;36207;51.850;21.698;2023-03-22T12:18:18;99607.10;;;12.24;57.83
50310;BME280;36207;51.850;21.698;2023-03-22T12:20:55;99614.65;;;12.23;58.13
50310;BME280;36207;51.850;21.698;2023-03-22T12:23:24;99610.83;;;12.20;58.18
50310;BME280;36207;51.850;21.698;2023-03-22T12:25:58;99609.35;;;12.17;57.87
50310;BME280;36207;51.850;21.698;2023-03-22T12:28:33;99605.63;;;12.13;57.94
50310;BME280;36207;51.850;21.698;2023-03-22T12:31:01;99607.71;;;12.12;58.59
50310;BME280;36207;51.850;21.698;2023-03-22T12:33:32;99603.34;;;12.10;58.54
50310;BME280;36207;51.850;21.698;2023-03-22T12:36:04;99601.35;;;12.09;58.78
50310;BME280;36207;51.850;21.698;2023-03-22T12:38:54;99594.55;;;12.07;59.14
50310;BME280;36207;51.850;21.698;2023-03-22T12:41:34;99593.07;;;12.05;58.99
50310;BME280;36207;51.850;21.698;2023-03-22T12:44:21;99587.36;;;12.01;59.04
50310;BME280;36207;51.850;21.698;2023-03-22T12:49:59;99584.17;;;11.97;59.60
50310;BME280;36207;51.850;21.698;2023-03-22T12:52:35;99585.33;;;11.95;59.73
50310;BME280;36207;51.850;21.698;2023-03-22T12:55:03;99593.86;;;11.95;59.80
50310;BME280;36207;51.850;21.698;2023-03-22T12:57:31;99586.08;;;11.95;59.93
50310;BME280;36207;51.850;21.698;2023-03-22T12:59:58;99581.42;;;11.96;60.05
50310;BME280;36207;51.850;21.698;2023-03-22T13:02:33;99583.48;;;11.98;60.07
50310;BME280;36207;51.850;21.698;2023-03-22T13:05:02;99578.63;;;11.96;60.05
50310;BME280;36207;51.850;21.698;2023-03-22T13:07:37;99580.13;;;11.94;60.09
50310;BME280;36207;51.850;21.698;2023-03-22T13:15:35;99578.22;;;12.00;60.70
50310;BME280;36207;51.850;21.698;2023-03-22T13:18:02;99575.73;;;12.04;60.68
50310;BME280;36207;51.850;21.698;2023-03-22T13:20:31;99574.43;;;12.09;60.76
50310;BME280;36207;51.850;21.698;2023-03-22T13:23:01;99574.58;;;12.15;61.15
50310;BME280;36207;51.850;21.698;2023-03-22T13:25:32;99570.11;;;12.20;61.17
50310;BME280;36207;51.850;21.698;2023-03-22T13:30:52;99560.05;;;12.29;61.43
50310;BME280;36207;51.850;21.698;2023-03-22T13:33:24;99555.28;;;12.35;61.60
50310;BME280;36207;51.850;21.698;2023-03-22T13:35:58;99543.89;;;12.40;61.73
50310;BME280;36207;51.850;21.698;2023-03-22T13:38:40;99541.52;;;12.48;61.88
50310;BME280;36207;51.850;21.698;2023-03-22T13:41:23;99541.30;;;12.61;61.69
50310;BME280;36207;51.850;21.698;2023-03-22T13:43:53;99544.65;;;12.72;61.69
50310;BME280;36207;51.850;21.698;2023-03-22T13:51:30;99549.64;;;12.88;61.56
50310;BME280;36207;51.850;21.698;2023-03-22T13:59:11;99540.42;;;13.05;60.94
50310;BME280;36207;51.850;21.698;2023-03-22T14:04:18;99540.63;;;13.08;60.51
50310;BME280;36207;51.850;21.698;2023-03-22T14:09:43;99536.00;;;13.01;60.76
50310;BME280;36207;51.850;21.698;2023-03-22T14:15:00;99527.38;;;12.89;61.02
50310;BME280;36207;51.850;21.698;2023-03-22T14:17:30;99521.73;;;12.83;60.91
50310;BME280;36207;51.850;21.698;2023-03-22T14:19:59;99525.15;;;12.79;60.78
50310;BME280;36207;51.850;21.698;2023-03-22T14:22:32;99519.31;;;12.76;60.84
50310;BME280;36207;51.850;21.698;2023-03-22T14:24:59;99525.60;;;12.74;60.58
50310;BME280;36207;51.850;21.698;2023-03-22T14:27:27;99515.33;;;12.70;60.27
50310;BME280;36207;51.850;21.698;2023-03-22T14:29:53;99509.98;;;12.71;60.67
50310;BME280;36207;51.850;21.698;2023-03-22T14:32:21;99507.80;;;12.74;60.49
50310;BME280;36207;51.850;21.698;2023-03-22T14:34:57;99507.80;;;12.81;60.77
50310;BME280;36207;51.850;21.698;2023-03-22T14:37:27;99503.76;;;12.88;60.45
50310;BME280;36207;51.850;21.698;2023-03-22T14:39:54;99499.97;;;12.94;60.17